Home > Products > Valid Products > TAF

000
FTUS42 KCAE 291234 AAA
TAFAGS
TAF AMD
KAGS 291234Z 2913/3012 00000KT 5SM BR SKC
     FM291400 06005KT P6SM FEW250=



000
FTUS42 KCAE 291232 AAA
TAFOGB
TAF AMD
KOGB 291232Z 2913/3012 00000KT 6SM BR SKC
     FM291400 VRB05KT P6SM FEW250=



000
FTUS42 KCAE 291132
TAFDNL
TAF
KDNL 291132Z 2912/3012 32006KT P6SM SKC
     FM291400 05005KT P6SM FEW250=



000
FTUS42 KCAE 291132
TAFAGS
TAF
KAGS 291132Z 2912/3012 00000KT 5SM BR SKC
      TEMPO 2912/2913 2SM BR
     FM291400 06005KT P6SM FEW250=



000
FTUS42 KCAE 291132
TAFCAE
TAF
KCAE 291132Z 2912/3012 VRB05KT P6SM SKC
     FM291400 05005KT P6SM FEW250=



000
FTUS42 KCAE 291132
TAFOGB
TAF
KOGB 291132Z 2912/3012 00000KT 3SM BR SKC
      TEMPO 2912/2913 2SM BR
     FM291400 VRB05KT P6SM FEW250=



000
FTUS42 KCAE 291132
TAFCUB
TAF
KCUB 291132Z 2912/3012 00000KT P6SM SKC
     FM291400 02005KT P6SM FEW250=



000
FTUS42 KCAE 291114 AAB
TAFOGB
TAF AMD
KOGB 291114Z 2911/3006 VRB04KT 1SM BR SCT001
     FM291300 32006KT P6SM SKC=



000
FTUS42 KCAE 291003 AAB
TAFAGS
TAF AMD
KAGS 291003Z 2910/3006 00000KT 5SM BR SKC
      TEMPO 2910/2913 2SM BR
     FM291500 VRB05KT P6SM SKC=



000
FTUS42 KCAE 290839 AAA
TAFOGB
TAF AMD
KOGB 290839Z 2909/3006 VRB04KT P6SM SKC
     FM291300 32006KT P6SM SKC=



000
FTUS42 KCAE 290839 AAA
TAFCUB
TAF AMD
KCUB 290839Z 2909/3006 VRB03KT P6SM SKC=



000
FTUS42 KCAE 290839 AAA
TAFDNL
TAF AMD
KDNL 290839Z 2909/3006 VRB05KT P6SM SKC=



000
FTUS42 KCAE 290839 AAA
TAFAGS
TAF AMD
KAGS 290839Z 2909/3006 VRB03KT P6SM SKC
      TEMPO 2910/2913 4SM BR
     FM291500 VRB05KT P6SM SKC=



000
FTUS42 KCAE 290839 AAA
TAFCAE
TAF AMD
KCAE 290839Z 2909/3006 VRB03KT P6SM SKC
     FM291400 33006KT P6SM SCT250=



000
FTUS42 KCAE 290520
TAFAGS
TAF
KAGS 290520Z 2906/3006 23006KT P6SM SKC
     FM290800 00000KT P6SM SKC
      TEMPO 2909/2913 4SM BR
     FM291500 VRB05KT P6SM SKC=



000
FTUS42 KCAE 290520
TAFDNL
TAF
KDNL 290520Z 2906/3006 VRB05KT P6SM SKC=



000
FTUS42 KCAE 290520
TAFCAE
TAF
KCAE 290520Z 2906/3006 22008KT P6SM SKC
     FM290800 VRB03KT P6SM SKC
     FM291400 33006KT P6SM SCT250=



000
FTUS42 KCAE 290520
TAFOGB
TAF
KOGB 290520Z 2906/3006 24006KT P6SM SKC
     FM290700 VRB03KT P6SM SKC
     FM291300 32006KT P6SM SKC=



000
FTUS42 KCAE 290520
TAFCUB
TAF
KCUB 290520Z 2906/3006 VRB04KT P6SM SKC=



000
FTUS42 KCAE 290242 AAA
TAFDNL
TAF AMD
KDNL 290242Z 2903/2924 VRB05KT P6SM SKC=



000
FTUS42 KCAE 290242 AAA
TAFOGB
TAF AMD
KOGB 290242Z 2903/2924 20006KT P6SM SKC
     FM290700 VRB03KT P6SM SKC
     FM291300 32006KT P6SM SKC=



000
FTUS42 KCAE 290242 AAA
TAFAGS
TAF AMD
KAGS 290242Z 2903/2924 23006KT P6SM SKC
     FM290800 00000KT P6SM SKC
      TEMPO 2909/2913 4SM BR
     FM291500 VRB05KT P6SM SKC=



000
FTUS42 KCAE 290242 AAA
TAFCUB
TAF AMD
KCUB 290242Z 2903/2924 VRB04KT P6SM SKC=



000
FTUS42 KCAE 290242 AAA
TAFCAE
TAF AMD
KCAE 290242Z 2903/2924 22008KT P6SM SKC
     FM290800 VRB03KT P6SM SKC
     FM291400 33006KT P6SM SCT250=



000
FTUS42 KCAE 282327
TAFCAE
TAF
KCAE 282327Z 2900/2924 23008KT P6SM SCT060
     FM290400 VRB03KT P6SM SKC
     FM291500 33006KT P6SM SCT250=



000
FTUS42 KCAE 282327
TAFOGB
TAF
KOGB 282327Z 2900/2924 24008KT P6SM SCT060
     FM290400 VRB04KT P6SM SKC
     FM291300 32006KT P6SM SKC=



000
FTUS42 KCAE 282327
TAFCUB
TAF
KCUB 282327Z 2900/2924 24005KT P6SM SCT060
     FM290400 00000KT P6SM SKC
     FM291500 VRB05KT P6SM SCT250=



000
FTUS42 KCAE 282327
TAFAGS
TAF
KAGS 282327Z 2900/2924 22008KT P6SM SCT060
     FM290400 VRB03KT P6SM SKC
      TEMPO 2909/2913 4SM BR
     FM291500 VRB05KT P6SM SKC=



000
FTUS42 KCAE 282327
TAFDNL
TAF
KDNL 282327Z 2900/2924 23008KT P6SM SCT060
     FM290400 VRB05KT P6SM SKC=



000
FTUS42 KCAE 282115 AAA
TAFCAE
TAF AMD
KCAE 282115Z 2821/2918 24013KT P6SM SCT050
     FM290000 24006KT P6SM FEW070
     FM290400 VRB03KT P6SM SKC=



000
FTUS42 KCAE 282115 AAA
TAFAGS
TAF AMD
KAGS 282115Z 2821/2918 25010KT P6SM SCT050
     FM290000 25005KT P6SM SCT060
     FM290400 VRB03KT P6SM SKC=



000
FTUS42 KCAE 282115 AAA
TAFDNL
TAF AMD
KDNL 282115Z 2821/2918 23008KT P6SM SCT050
     FM290400 VRB04KT P6SM SKC=



000
FTUS42 KCAE 282115 AAA
TAFCAE
TAF AMD
KCAE 282115Z 2821/2918 24013KT P6SM SCT050
     FM290000 24006KT P6SM FEW070
     FM290400 VRB03KT P6SM SKC=



000
FTUS42 KCAE 282115 AAA
TAFCUB
TAF AMD
KCUB 282115Z 2821/2918 24008KT P6SM SCT050
     FM290000 VRB03KT P6SM FEW070
     FM290400 VRB03KT P6SM SKC=



000
FTUS42 KCAE 282115 AAA
TAFOGB
TAF AMD
KOGB 282115Z 2821/2918 25012KT P6SM SCT050
     FM290100 23008KT P6SM SCT060 BKN250
     FM290400 VRB03KT P6SM SKC=



000
FTUS42 KCAE 282115 AAA
TAFDNL
TAF AMD
KDNL 282115Z 2821/2918 23008KT P6SM SCT050
     FM290400 VRB04KT P6SM SKC=



000
FTUS42 KCAE 282115 AAA
TAFAGS
TAF AMD
KAGS 282115Z 2821/2918 25010KT P6SM SCT050
     FM290000 25005KT P6SM SCT060
     FM290400 VRB03KT P6SM SKC=



000
FTUS42 KCAE 281720
TAFCUB
TAF
KCUB 281720Z 2818/2918 24010G16KT P6SM VCSH SCT025 BKN045
     FM290000 VRB03KT P6SM BKN045
     FM290400 VRB03KT P6SM SKC=



000
FTUS42 KCAE 281720
TAFDNL
TAF
KDNL 281720Z 2818/2918 23009KT P6SM VCSH SCT025 BKN040
      TEMPO 2818/2822 4SM -TSRA BKN030CB
     FM290000 25004KT P6SM SCT045
     FM290400 VRB03KT P6SM SKC=



000
FTUS42 KCAE 281720
TAFAGS
TAF
KAGS 281720Z 2818/2918 24010G16KT P6SM VCSH SCT025 BKN040
      TEMPO 2818/2822 4SM -TSRA BKN030CB
     FM290000 25005KT P6SM SCT045
     FM290400 VRB03KT P6SM SKC=



000
FTUS42 KCAE 281720
TAFOGB
TAF
KOGB 281720Z 2818/2918 24010G16KT P6SM VCSH SCT030 BKN045
      TEMPO 2819/2823 4SM -TSRA BKN030CB
     FM290000 23005KT P6SM BKN045
     FM290400 VRB03KT P6SM SKC=



000
FTUS42 KCAE 281720
TAFCAE
TAF
KCAE 281720Z 2818/2918 24012G18KT P6SM VCSH SCT025 BKN045
     FM290000 24006KT P6SM BKN045
     FM290400 VRB03KT P6SM SKC=



000
FTUS42 KCAE 281339 AAA
TAFAGS
TAF AMD
KAGS 281339Z 2814/2912 23008KT P6SM BKN020 BKN100
     FM281600 25012G20KT P6SM VCSH SCT035 BKN050
     FM290000 24007KT P6SM SCT250=



000
FTUS42 KCAE 281339 AAA
TAFCUB
TAF AMD
KCUB 281339Z 2814/2912 23004KT P6SM BKN025 BKN120
     FM281500 24010G18KT P6SM SCT035 BKN100
     FM281800 25012G20KT P6SM VCSH SCT040 BKN060
     FM290000 24007KT P6SM SCT250=



000
FTUS42 KCAE 281338 AAA
TAFCAE
TAF AMD
KCAE 281338Z 2814/2912 23005KT P6SM BKN025 BKN120
     FM281500 24010G18KT P6SM SCT035 BKN100
     FM281800 25012G22KT P6SM VCSH SCT040 BKN060
     FM290000 24007KT P6SM SCT250=



000
FTUS42 KCAE 281211 CCA
TAFDNL
TAF COR
KDNL 281211Z 2812/2912 22004KT P6SM BKN015 BKN120
     FM281400 24008KT P6SM SCT025 BKN100
     FM281600 25010G18KT P6SM VCSH SCT035 BKN050
     FM290000 24007KT P6SM SCT250=



000
FTUS42 KCAE 281210 CCA
TAFAGS
TAF COR
KAGS 281210Z 2812/2912 22004KT P6SM BKN015 BKN120
     FM281400 24008KT P6SM SCT025 BKN100
     FM281600 25012G20KT P6SM VCSH SCT035 BKN050
     FM290000 24007KT P6SM SCT250=



000
FTUS42 KCAE 281129
TAFCUB
TAF
KCUB 281129Z 2812/2912 23004KT P6SM VCSH SCT035 BKN120
     FM281500 24010G18KT P6SM SCT035 BKN100
     FM281800 25012G20KT P6SM VCSH SCT040 BKN060
     FM290000 24007KT P6SM SCT250=



000
FTUS42 KCAE 281129
TAFCAE
TAF
KCAE 281129Z 2812/2912 23005KT P6SM SCT035 BKN120
     FM281500 24010G18KT P6SM SCT035 BKN100
     FM281800 25012G22KT P6SM VCSH SCT040 BKN060
     FM290000 24007KT P6SM SCT250=



000
FTUS42 KCAE 281129
TAFAGS
TAF
KAGS 281129Z 2812/2912 22004KT P6SM SCT030 BKN120
     FM281400 24008KT P6SM SCT025 BKN100
     FM281600 25012G20KT P6SM VCSH SCT035 BKN050
     FM290000 24007KT P6SM SCT250=



000
FTUS42 KCAE 281129
TAFOGB
TAF
KOGB 281129Z 2812/2912 24005KT P6SM VCSH SCT040 OVC120
     FM281500 24010G18KT P6SM SCT035 BKN100
     FM282000 25012G20KT P6SM VCSH SCT040 BKN060
     FM290000 24007KT P6SM SCT250=



000
FTUS42 KCAE 281129
TAFDNL
TAF
KDNL 281129Z 2812/2912 22004KT P6SM SCT030 BKN120
     FM281400 24008KT P6SM SCT025 BKN100
     FM281600 25010G18KT P6SM VCSH SCT035 BKN050
     FM290000 24007KT P6SM SCT250=



000
FTUS42 KCAE 281129
TAFDNL
TAF
KDNL 281129Z 2812/2912 22004KT P6SM SCT030 BKN120
     FM281400 24008KT P6SM SCT025 BKN100
     FM281600 25010G18KT P6SM VCSH SCT035 BKN050
     FM290000 24007KT P6SM SCT250=



000
FTUS42 KCAE 281129
TAFOGB
TAF
KOGB 281129Z 2812/2912 24005KT P6SM VCSH SCT040 OVC120
     FM281500 24010G18KT P6SM SCT035 BKN100
     FM282000 25012G20KT P6SM VCSH SCT040 BKN060
     FM290000 24007KT P6SM SCT250=



000
FTUS42 KCAE 281129
TAFCAE
TAF
KCAE 281129Z 2812/2912 23005KT P6SM SCT035 BKN120
     FM281500 24010G18KT P6SM SCT035 BKN100
     FM281800 25012G22KT P6SM VCSH SCT040 BKN060
     FM290000 24007KT P6SM SCT250=



000
FTUS42 KCAE 281129
TAFAGS
TAF
KAGS 281129Z 2812/2912 22004KT P6SM SCT030 BKN120
     FM281400 24008KT P6SM SCT025 BKN100
     FM281600 25012G20KT P6SM VCSH SCT035 BKN050
     FM290000 24007KT P6SM SCT250=



000
FTUS42 KCAE 281129
TAFCUB
TAF
KCUB 281129Z 2812/2912 23004KT P6SM VCSH SCT035 BKN120
     FM281500 24010G18KT P6SM SCT035 BKN100
     FM281800 25012G20KT P6SM VCSH SCT040 BKN060
     FM290000 24007KT P6SM SCT250=



000
FTUS42 KCAE 280859 AAB
TAFCUB
TAF AMD
KCUB 280859Z 2809/2906 22004KT P6SM SCT025 OVC200
     FM281500 22008G18KT P6SM VCSH SCT035 BKN100
     FM281800 22012G20KT P6SM VCSH SCT040 BKN060
     FM290000 24007KT P6SM SCT250=



000
FTUS42 KCAE 280859 AAB
TAFCAE
TAF AMD
KCAE 280859Z 2809/2906 23005KT P6SM SCT025 OVC200
     FM281500 23010G18KT P6SM VCSH SCT035 BKN100
     FM281800 23012G22KT P6SM VCSH SCT040 BKN060
     FM290000 24007KT P6SM SCT250=



000
FTUS42 KCAE 280859 AAB
TAFOGB
TAF AMD
KOGB 280859Z 2809/2906 20008KT P6SM BKN250
     FM281200 24006KT P6SM VCSH SCT045 BKN120
     FM281500 24010G18KT P6SM SCT035 BKN100
     FM282000 25012G20KT P6SM VCSH SCT040 BKN060
     FM290000 24007KT P6SM SCT250=



000
FTUS42 KCAE 280859 AAB
TAFAGS
TAF AMD
KAGS 280859Z 2809/2906 19004KT P6SM -RA SCT030 OVC090
     FM281400 24008KT P6SM SCT025 BKN100
     FM281600 25012G20KT P6SM VCSH SCT035 BKN050
     FM290000 24007KT P6SM SCT250=



000
FTUS42 KCAE 280859 AAB
TAFDNL
TAF AMD
KDNL 280859Z 2809/2906 20004KT P6SM VCSH SCT030 OVC100
     FM281400 23008KT P6SM SCT025 BKN100
     FM281600 25010G18KT P6SM VCSH SCT035 BKN050
     FM290000 24007KT P6SM SCT250=



000
FTUS42 KCAE 280530 AAA
TAFAGS
TAF AMD
KAGS 280530Z 2806/2906 19004KT P6SM OVC200
     FM280900 20003KT 5SM BR VCSH OVC025
     FM281400 24008KT P6SM SCT025 BKN100
     FM281600 25012G20KT P6SM VCSH SCT035 BKN050
     FM290000 24007KT P6SM SCT250=



000
FTUS42 KCAE 280530 AAA
TAFCAE
TAF AMD
KCAE 280530Z 2806/2906 20008KT P6SM BKN250
     FM281000 23005KT P6SM SCT025 OVC200
     FM281500 23010G18KT P6SM VCSH SCT035 BKN100
     FM281800 23012G22KT P6SM VCSH SCT040 BKN060
     FM290000 24007KT P6SM SCT250=



000
FTUS42 KCAE 280530 AAA
TAFDNL
TAF AMD
KDNL 280530Z 2806/2906 19005KT P6SM FEW060 OVC200
     FM280900 20004KT P6SM VCSH OVC025
     FM281400 23008KT P6SM SCT025 BKN100
     FM281600 25010G18KT P6SM VCSH SCT035 BKN050
     FM290000 24007KT P6SM SCT250=



000
FTUS42 KCAE 280530 AAA
TAFOGB
TAF AMD
KOGB 280530Z 2806/2906 20008KT P6SM BKN250
      TEMPO 2809/2812 5SM BR
     FM281200 24006KT P6SM VCSH SCT045 BKN120
     FM281500 24010G18KT P6SM SCT035 BKN100
     FM282000 25012G20KT P6SM VCSH SCT040 BKN060
     FM290000 24007KT P6SM SCT250=



000
FTUS42 KCAE 280530 AAA
TAFCUB
TAF AMD
KCUB 280530Z 2806/2906 20005KT P6SM BKN250
     FM281000 22004KT P6SM SCT025 OVC200
     FM281500 22008G18KT P6SM VCSH SCT035 BKN100
     FM281800 22012G20KT P6SM VCSH SCT040 BKN060
     FM290000 24007KT P6SM SCT250=



000
FTUS42 KCAE 280530 AAA
TAFDNL
TAF AMD
KDNL 280530Z 2806/2906 19005KT P6SM FEW060 OVC200
     FM280900 20004KT P6SM VCSH OVC025
     FM281400 23008KT P6SM SCT025 BKN100
     FM281600 25010G18KT P6SM VCSH SCT035 BKN050
     FM290000 24007KT P6SM SCT250=



000
FTUS42 KCAE 280530 AAA
TAFOGB
TAF AMD
KOGB 280530Z 2806/2906 20008KT P6SM BKN250
      TEMPO 2809/2812 5SM BR
     FM281200 24006KT P6SM VCSH SCT045 BKN120
     FM281500 24010G18KT P6SM SCT035 BKN100
     FM282000 25012G20KT P6SM VCSH SCT040 BKN060
     FM290000 24007KT P6SM SCT250=



000
FTUS42 KCAE 280530 AAA
TAFCAE
TAF AMD
KCAE 280530Z 2806/2906 20008KT P6SM BKN250
     FM281000 23005KT P6SM SCT025 OVC200
     FM281500 23010G18KT P6SM VCSH SCT035 BKN100
     FM281800 23012G22KT P6SM VCSH SCT040 BKN060
     FM290000 24007KT P6SM SCT250=



000
FTUS42 KCAE 280530 AAA
TAFCUB
TAF AMD
KCUB 280530Z 2806/2906 20005KT P6SM BKN250
     FM281000 22004KT P6SM SCT025 OVC200
     FM281500 22008G18KT P6SM VCSH SCT035 BKN100
     FM281800 22012G20KT P6SM VCSH SCT040 BKN060
     FM290000 24007KT P6SM SCT250=



000
FTUS42 KCAE 280530 AAA
TAFAGS
TAF AMD
KAGS 280530Z 2806/2906 19004KT P6SM OVC200
     FM280900 20003KT 5SM BR VCSH OVC025
     FM281400 24008KT P6SM SCT025 BKN100
     FM281600 25012G20KT P6SM VCSH SCT035 BKN050
     FM290000 24007KT P6SM SCT250=



000
FTUS42 KCAE 280526
TAFDNL
TAF
KDNL 280526Z 2806/2906 19005KT P6SM FEW060 OVC200
     FM280900 20004KT P6SM VCSH OVC025
     FM281400 23008KT P6SM SCT025 BKN100
     FM281600 25010G18KT P6SM VCSH SCT035 BKN050=



000
FTUS42 KCAE 280526
TAFCAE
TAF
KCAE 280526Z 2806/2906 20008KT P6SM BKN250
     FM281000 23005KT P6SM SCT025 OVC200
     FM281500 23010G18KT P6SM VCSH SCT035 BKN100
     FM281800 23012G22KT P6SM VCSH SCT040 BKN060=



000
FTUS42 KCAE 280526
TAFCUB
TAF
KCUB 280526Z 2806/2906 20005KT P6SM BKN250
     FM281000 22004KT P6SM SCT025 OVC200
     FM281500 22008G18KT P6SM VCSH SCT035 BKN100
     FM281800 22012G20KT P6SM VCSH SCT040 BKN060=



000
FTUS42 KCAE 280526
TAFOGB
TAF
KOGB 280526Z 2806/2906 20008KT P6SM BKN250
      TEMPO 2809/2812 5SM BR
     FM281200 24006KT P6SM VCSH SCT045 BKN120
     FM281500 24010G18KT P6SM SCT035 BKN100
     FM282000 25012G20KT P6SM VCSH SCT040 BKN060=



000
FTUS42 KCAE 280526
TAFAGS
TAF
KAGS 280526Z 2806/2906 19004KT P6SM OVC200
     FM280900 20003KT 5SM BR VCSH OVC025
     FM281400 24008KT P6SM SCT025 BKN100
     FM281600 25012G20KT P6SM VCSH SCT035 BKN050=



000
FTUS42 KCAE 280526
TAFCAE
TAF
KCAE 280526Z 2806/2906 20008KT P6SM BKN250
     FM281000 23005KT P6SM SCT025 OVC200
     FM281500 23010G18KT P6SM VCSH SCT035 BKN100
     FM281800 23012G22KT P6SM VCSH SCT040 BKN060=



000
FTUS42 KCAE 280526
TAFOGB
TAF
KOGB 280526Z 2806/2906 20008KT P6SM BKN250
      TEMPO 2809/2812 5SM BR
     FM281200 24006KT P6SM VCSH SCT045 BKN120
     FM281500 24010G18KT P6SM SCT035 BKN100
     FM282000 25012G20KT P6SM VCSH SCT040 BKN060=



000
FTUS42 KCAE 280526
TAFCUB
TAF
KCUB 280526Z 2806/2906 20005KT P6SM BKN250
     FM281000 22004KT P6SM SCT025 OVC200
     FM281500 22008G18KT P6SM VCSH SCT035 BKN100
     FM281800 22012G20KT P6SM VCSH SCT040 BKN060=



000
FTUS42 KCAE 280526
TAFAGS
TAF
KAGS 280526Z 2806/2906 19004KT P6SM OVC200
     FM280900 20003KT 5SM BR VCSH OVC025
     FM281400 24008KT P6SM SCT025 BKN100
     FM281600 25012G20KT P6SM VCSH SCT035 BKN050=



000
FTUS42 KCAE 280526
TAFDNL
TAF
KDNL 280526Z 2806/2906 19005KT P6SM FEW060 OVC200
     FM280900 20004KT P6SM VCSH OVC025
     FM281400 23008KT P6SM SCT025 BKN100
     FM281600 25010G18KT P6SM VCSH SCT035 BKN050=



000
FTUS42 KCAE 280232 AAA
TAFOGB
TAF AMD
KOGB 280232Z 2803/2824 19008KT P6SM BKN250
      TEMPO 2809/2812 5SM BR
     FM281200 24006KT P6SM VCSH SCT045 BKN120
     FM281500 24010G18KT P6SM SCT035 BKN100
     FM282000 25012G20KT P6SM VCSH SCT040 BKN060=



000
FTUS42 KCAE 280232 AAA
TAFCAE
TAF AMD
KCAE 280232Z 2803/2824 19008KT P6SM BKN250
     FM281000 23005KT P6SM SCT025 OVC200
     FM281500 23010G18KT P6SM VCSH SCT035 BKN100
     FM281800 23012G22KT P6SM VCSH SCT040 BKN060=



000
FTUS42 KCAE 280232 AAA
TAFDNL
TAF AMD
KDNL 280232Z 2803/2824 18005KT P6SM FEW060 OVC200
     FM280900 20005KT P6SM VCSH OVC025
     FM281400 23008KT P6SM SCT025 BKN100
     FM281600 25010G18KT P6SM VCSH SCT035 BKN050=



000
FTUS42 KCAE 280232 AAA
TAFCUB
TAF AMD
KCUB 280232Z 2803/2824 19006KT P6SM BKN250
     FM281000 22004KT P6SM SCT025 OVC200
     FM281500 22008G18KT P6SM VCSH SCT035 BKN100
     FM281800 22012G20KT P6SM VCSH SCT040 BKN060=



000
FTUS42 KCAE 280232 AAA
TAFAGS
TAF AMD
KAGS 280232Z 2803/2824 18005KT P6SM OVC200
     FM280900 20003KT 5SM BR VCSH OVC025
     FM281400 24008KT P6SM SCT025 BKN100
     FM281600 25012G20KT P6SM VCSH SCT035 BKN050=



000
FTUS42 KCAE 272330
TAFDNL
TAF
KDNL 272330Z 2800/2824 22010KT P6SM FEW060 OVC250
     FM280900 20005KT P6SM VCSH OVC025
     FM281400 23008KT P6SM VCSH SCT025 BKN100
     FM281600 25010G18KT P6SM VCSH SCT035 BKN050=



000
FTUS42 KCAE 272330
TAFCUB
TAF
KCUB 272330Z 2800/2824 22008KT P6SM SCT060 BKN250
     FM281000 22004KT P6SM SCT025 OVC200
     FM281500 22008G18KT P6SM VCSH SCT035 BKN100
     FM281800 22012G20KT P6SM VCSH SCT040 BKN060=



000
FTUS42 KCAE 272330
TAFCAE
TAF
KCAE 272330Z 2800/2824 20008KT P6SM SCT060 BKN250
     FM281000 23005KT P6SM SCT025 OVC200
     FM281500 23010G18KT P6SM VCSH SCT035 BKN100
     FM281800 23015G22KT P6SM VCSH SCT040 BKN060=



000
FTUS42 KCAE 272330
TAFAGS
TAF
KAGS 272330Z 2800/2824 22010KT P6SM FEW060 OVC250
     FM280900 20003KT 5SM BR VCSH OVC025
     FM281400 24008KT P6SM VCSH SCT025 BKN100
     FM281600 25012G19KT P6SM VCSH SCT035 BKN050=



000
FTUS42 KCAE 272330
TAFOGB
TAF
KOGB 272330Z 2800/2824 19010KT P6SM VCSH BKN070
     FM280100 19008KT P6SM SCT060 BKN250
      TEMPO 2809/2812 5SM BR
     FM281200 24006KT P6SM VCSH SCT045 BKN120
     FM281500 24010G18KT P6SM SCT035 BKN100
     FM282000 25012G20KT P6SM VCSH SCT040 BKN060=



000
FTUS42 KCAE 272041 AAA
TAFAGS
TAF AMD
KAGS 272041Z 2721/2818 22010KT P6SM SCT060
     FM280000 18005KT P6SM SCT250
      TEMPO 2809/2812 5SM BR
     FM281200 24006KT P6SM SCT025 BKN045
     FM281500 24010G18KT P6SM SCT035 BKN100=



000
FTUS42 KCAE 272041 AAA
TAFOGB
TAF AMD
KOGB 272041Z 2721/2818 21010G18KT P6SM SCT060
     FM280000 19005KT P6SM SCT250
      TEMPO 2809/2812 5SM BR
     FM281200 24006KT P6SM SCT045 BKN120
     FM281500 24010G18KT P6SM SCT035 BKN100=



000
FTUS42 KCAE 272041 AAA
TAFCAE
TAF AMD
KCAE 272041Z 2721/2818 22010G18KT P6SM SCT060
     FM280000 20006KT P6SM SCT250
     FM281200 24006KT P6SM SCT045 BKN120
     FM281500 24010G18KT P6SM SCT035 BKN100=



000
FTUS42 KCAE 272041 AAA
TAFDNL
TAF AMD
KDNL 272041Z 2721/2818 21012G20KT P6SM SCT060
     FM280000 18005KT P6SM SCT250
     FM281200 24006KT P6SM SCT025 BKN045
     FM281500 24010G18KT P6SM SCT035 BKN100=



000
FTUS42 KCAE 272041 AAA
TAFCUB
TAF AMD
KCUB 272041Z 2721/2818 22010KT P6SM SCT060
     FM280000 20004KT P6SM SCT250
     FM281200 24006KT P6SM SCT045 BKN120
     FM281500 24010G18KT P6SM SCT035 BKN100=



000
FTUS42 KCAE 271730
TAFDNL
TAF
KDNL 271730Z 2718/2818 22008G15KT P6SM SCT050
     FM280000 22005KT P6SM SCT250
     FM281200 24006KT P6SM SCT025 BKN045
     FM281500 24010G18KT P6SM SCT035 BKN100=



000
FTUS42 KCAE 271730
TAFCUB
TAF
KCUB 271730Z 2718/2818 22008G15KT P6SM SCT050
     FM280000 22004KT P6SM SCT250
     FM281200 24006KT P6SM SCT045 BKN120
     FM281500 24010G18KT P6SM SCT035 BKN100=



000
FTUS42 KCAE 271730
TAFCAE
TAF
KCAE 271730Z 2718/2818 21008G15KT P6SM SCT050
     FM280000 22006KT P6SM SCT250
     FM281200 24006KT P6SM SCT045 BKN120
     FM281500 24010G18KT P6SM SCT035 BKN100=



000
FTUS42 KCAE 271730
TAFOGB
TAF
KOGB 271730Z 2718/2818 22008G15KT P6SM SCT050
     FM280000 22005KT P6SM SCT250
      TEMPO 2809/2812 5SM BR
     FM281200 24006KT P6SM SCT045 BKN120
     FM281500 24010G18KT P6SM SCT035 BKN100=



000
FTUS42 KCAE 271730
TAFAGS
TAF
KAGS 271730Z 2718/2818 22008G15KT P6SM SCT050
     FM280000 22007KT P6SM SCT250
      TEMPO 2809/2812 5SM BR
     FM281200 24006KT P6SM SCT025 BKN045
     FM281500 24010G18KT P6SM SCT035 BKN100=



000
FTUS42 KCAE 271403 AAA
TAFCUB
TAF AMD
KCUB 271403Z 2714/2812 22006KT P6SM FEW250
     FM271600 24008G15KT P6SM SCT050
     FM280000 VRB04KT P6SM SCT250=



000
FTUS42 KCAE 271403 AAA
TAFOGB
TAF AMD
KOGB 271403Z 2714/2812 22007KT P6SM FEW250
     FM271600 24008G15KT P6SM SCT050
     FM280000 19005KT P6SM SCT250=



000
FTUS42 KCAE 271403 AAA
TAFCAE
TAF AMD
KCAE 271403Z 2714/2812 21007KT P6SM FEW250
     FM271600 24008G15KT P6SM SCT050
     FM280000 19006KT P6SM SCT250=



000
FTUS42 KCAE 271403 AAA
TAFAGS
TAF AMD
KAGS 271403Z 2714/2812 23007KT P6SM FEW250
     FM271600 24008G15KT P6SM SCT050
     FM280000 18007KT P6SM SCT250=



000
FTUS42 KCAE 271403 AAA
TAFDNL
TAF AMD
KDNL 271403Z 2714/2812 23007KT P6SM FEW250
     FM271600 24008G15KT P6SM SCT050
     FM280000 18005KT P6SM SCT250=



000
FTUS42 KCAE 271141
TAFCAE
TAF
KCAE 271141Z 2712/2812 21004KT P6SM FEW250 WS010/22030KT
     FM271500 24012KT P6SM SCT040
     FM280000 19006KT P6SM SCT250=



000
FTUS42 KCAE 271141
TAFCUB
TAF
KCUB 271141Z 2712/2812 20003KT P6SM FEW250 WS010/22030KT
     FM271400 23010KT P6SM SCT050
     FM280000 VRB04KT P6SM SCT250=



000
FTUS42 KCAE 271141
TAFAGS
TAF
KAGS 271141Z 2712/2812 19005KT P6SM FEW060 WS010/22030KT
     FM271400 22011KT P6SM SCT050
     FM280000 18007KT P6SM SCT250=



000
FTUS42 KCAE 271141
TAFDNL
TAF
KDNL 271141Z 2712/2812 20005KT P6SM FEW060 WS010/22030KT
     FM271400 21010KT P6SM SCT050
     FM280000 18005KT P6SM SCT250=



000
FTUS42 KCAE 271141
TAFOGB
TAF
KOGB 271141Z 2712/2812 20004KT P6SM FEW250 WS010/22030KT
     FM271400 24011KT P6SM SCT050
     FM280000 19005KT P6SM SCT250=



000
FTUS42 KCAE 270858 AAA
TAFDNL
TAF AMD
KDNL 270858Z 2709/2806 20005KT P6SM FEW060 WS010/22030KT
     FM271400 21010KT P6SM SCT050
     FM280000 18005KT P6SM SCT250=



000
FTUS42 KCAE 270858 AAA
TAFCUB
TAF AMD
KCUB 270858Z 2709/2806 20003KT P6SM FEW250 WS010/22030KT
     FM271400 23010KT P6SM SCT050
     FM280000 VRB04KT P6SM SCT250=



000
FTUS42 KCAE 270858 AAA
TAFCAE
TAF AMD
KCAE 270858Z 2709/2806 21004KT P6SM FEW250 WS010/22030KT
     FM271500 24012KT P6SM SCT040
     FM280000 19006KT P6SM SCT250=



000
FTUS42 KCAE 270858 AAA
TAFOGB
TAF AMD
KOGB 270858Z 2709/2806 20004KT P6SM FEW250 WS010/22030KT
     FM271400 24011KT P6SM SCT050
     FM280000 19005KT P6SM SCT250=



000
FTUS42 KCAE 270858 AAA
TAFAGS
TAF AMD
KAGS 270858Z 2709/2806 19005KT P6SM FEW060 WS010/22030KT
     FM271400 22011KT P6SM SCT050
     FM280000 18007KT P6SM SCT250=



000
FTUS42 KCAE 270520
TAFDNL
TAF
KDNL 270520Z 2706/2806 18005KT P6SM SKC WS010/22030KT
     FM271400 21010KT P6SM SCT050
     FM280000 18005KT P6SM SCT250=



000
FTUS42 KCAE 270520
TAFCAE
TAF
KCAE 270520Z 2706/2806 21004KT P6SM SKC WS010/22030KT
     FM271500 24012KT P6SM SCT040
     FM280000 19006KT P6SM SCT250=



000
FTUS42 KCAE 270520
TAFCUB
TAF
KCUB 270520Z 2706/2806 20004KT P6SM SKC WS010/22030KT
     FM271400 23010KT P6SM SCT050
     FM280000 VRB04KT P6SM SCT250=



000
FTUS42 KCAE 270520
TAFAGS
TAF
KAGS 270520Z 2706/2806 19005KT P6SM SKC WS010/22030KT
     FM271400 22011KT P6SM SCT050
     FM280000 18007KT P6SM SCT250=



000
FTUS42 KCAE 270520
TAFOGB
TAF
KOGB 270520Z 2706/2806 20004KT P6SM SKC WS010/22030KT
     FM271400 24011KT P6SM SCT050
     FM280000 19005KT P6SM SCT250=



000
FTUS42 KCAE 270230 AAA
TAFAGS
TAF AMD
KAGS 270230Z 2703/2724 20005KT P6SM SKC
     FM270600 21003KT P6SM SKC WS010/22030KT
     FM271400 22008KT P6SM FEW030=



000
FTUS42 KCAE 270230 AAA
TAFDNL
TAF AMD
KDNL 270230Z 2703/2724 20005KT P6SM SKC
     FM270600 18003KT P6SM SKC WS010/22030KT
     FM271400 20008KT P6SM FEW030=



000
FTUS42 KCAE 270230 AAA
TAFOGB
TAF AMD
KOGB 270230Z 2703/2724 18008KT P6SM SKC
     FM270600 21003KT P6SM SKC WS010/22030KT
     FM271400 23010KT P6SM FEW030=



000
FTUS42 KCAE 270230 AAA
TAFCAE
TAF AMD
KCAE 270230Z 2703/2724 18005KT P6SM SKC
     FM270600 21003KT P6SM SKC WS010/22030KT
     FM271400 24010KT P6SM FEW030=



000
FTUS42 KCAE 270230 AAA
TAFAGS
TAF AMD
KAGS 270230Z 2703/2724 20005KT P6SM SKC
     FM270600 21003KT P6SM SKC WS010/22030KT
     FM271400 22008KT P6SM FEW030=



000
FTUS42 KCAE 270230 AAA
TAFOGB
TAF AMD
KOGB 270230Z 2703/2724 18008KT P6SM SKC
     FM270600 21003KT P6SM SKC WS010/22030KT
     FM271400 23010KT P6SM FEW030=



000
FTUS42 KCAE 270230 AAA
TAFCUB
TAF AMD
KCUB 270230Z 2703/2724 18005KT P6SM SKC
     FM270600 21003KT P6SM SKC WS010/22030KT
     FM271400 24008KT P6SM FEW030=



000
FTUS42 KCAE 270230 AAA
TAFDNL
TAF AMD
KDNL 270230Z 2703/2724 20005KT P6SM SKC
     FM270600 18003KT P6SM SKC WS010/22030KT
     FM271400 20008KT P6SM FEW030=



000
FTUS42 KCAE 262329
TAFOGB
TAF
KOGB 262329Z 2700/2724 19010KT P6SM FEW070
     FM270300 19005KT P6SM SKC
     FM270600 21003KT P6SM SKC WS010/22030KT
     FM271400 23010KT P6SM FEW030=



000
FTUS42 KCAE 262329
TAFCUB
TAF
KCUB 262329Z 2700/2724 19010KT P6SM FEW070
     FM270100 19003KT P6SM SKC
     FM270600 21003KT P6SM SKC WS010/22030KT
     FM271400 24008KT P6SM FEW030=



000
FTUS42 KCAE 262329
TAFDNL
TAF
KDNL 262329Z 2700/2724 20008KT P6SM SKC
     FM270600 18003KT P6SM SKC WS010/22030KT
     FM271400 20008KT P6SM FEW030=



000
FTUS42 KCAE 262329
TAFCAE
TAF
KCAE 262329Z 2700/2724 19010KT P6SM FEW070
     FM270300 20005KT P6SM SKC
     FM270600 21003KT P6SM SKC WS010/22030KT
     FM271400 24010KT P6SM FEW030=



000
FTUS42 KCAE 262329
TAFAGS
TAF
KAGS 262329Z 2700/2724 20008KT P6SM SKC
     FM270600 21003KT P6SM SKC WS010/22030KT
     FM271400 22008KT P6SM FEW030=



000
FTUS42 KCAE 262051 AAA
TAFDNL
TAF AMD
KDNL 262051Z 2621/2718 19008KT P6SM SCT060
     FM270100 18005KT P6SM SKC
     FM270600 21003KT P6SM SKC WS010/22030KT
     FM271400 22008KT P6SM FEW030=



000
FTUS42 KCAE 262051 AAA
TAFCUB
TAF AMD
KCUB 262051Z 2621/2718 20008KT P6SM SCT060
     FM270100 19003KT P6SM SKC
     FM270600 21003KT P6SM SKC WS010/22030KT
     FM271400 24008KT P6SM FEW030=



000
FTUS42 KCAE 262051 AAA
TAFAGS
TAF AMD
KAGS 262051Z 2621/2718 19008KT P6SM SCT060
     FM270100 19004KT P6SM SKC
     FM270600 21003KT P6SM SKC WS010/22030KT
     FM271400 22008KT P6SM FEW030=



000
FTUS42 KCAE 262051 AAA
TAFOGB
TAF AMD
KOGB 262051Z 2621/2718 20010KT P6SM SCT060
     FM270100 19005KT P6SM SKC
     FM270600 21003KT P6SM SKC WS010/22030KT
     FM271400 23010KT P6SM FEW030=



000
FTUS42 KCAE 262051 AAA
TAFCAE
TAF AMD
KCAE 262051Z 2621/2718 20010KT P6SM SCT060
     FM270100 19005KT P6SM SKC
     FM270600 21003KT P6SM SKC WS010/22030KT
     FM271400 24008KT P6SM FEW030=



000
FTUS42 KCAE 262051 AAA
TAFDNL
TAF AMD
KDNL 262051Z 2621/2718 19008KT P6SM SCT060
     FM270100 18005KT P6SM SKC
     FM270600 21003KT P6SM SKC WS010/22030KT
     FM271400 22008KT P6SM FEW030=



000
FTUS42 KCAE 262051 AAA
TAFAGS
TAF AMD
KAGS 262051Z 2621/2718 19008KT P6SM SCT060
     FM270100 19004KT P6SM SKC
     FM270600 21003KT P6SM SKC WS010/22030KT
     FM271400 22008KT P6SM FEW030=



000
FTUS42 KCAE 262051 AAA
TAFOGB
TAF AMD
KOGB 262051Z 2621/2718 20010KT P6SM SCT060
     FM270100 19005KT P6SM SKC
     FM270600 21003KT P6SM SKC WS010/22030KT
     FM271400 23010KT P6SM FEW030=



000
FTUS42 KCAE 262051 AAA
TAFCUB
TAF AMD
KCUB 262051Z 2621/2718 20008KT P6SM SCT060
     FM270100 19003KT P6SM SKC
     FM270600 21003KT P6SM SKC WS010/22030KT
     FM271400 24008KT P6SM FEW030=



000
FTUS42 KCAE 262051 AAA
TAFCAE
TAF AMD
KCAE 262051Z 2621/2718 20010KT P6SM SCT060
     FM270100 19005KT P6SM SKC
     FM270600 21003KT P6SM SKC WS010/22030KT
     FM271400 24008KT P6SM FEW030=



000
FTUS42 KCAE 261733
TAFDNL
TAF
KDNL 261733Z 2618/2718 22010G15KT P6SM SCT040 SCT250
     FM270100 19004KT P6SM SKC
     FM270600 21003KT P6SM SKC WS010/22030KT=



000
FTUS42 KCAE 261733
TAFCAE
TAF
KCAE 261733Z 2618/2718 22010G15KT P6SM SCT045 SCT250
     FM270100 19005KT P6SM SKC
     FM270600 21003KT P6SM SKC WS010/22030KT=



000
FTUS42 KCAE 261733
TAFDNL
TAF
KDNL 261733Z 2618/2718 22010G15KT P6SM SCT040 SCT250
     FM270100 19004KT P6SM SKC
     FM270600 21003KT P6SM SKC WS010/22030KT=



000
FTUS42 KCAE 261733
TAFAGS
TAF
KAGS 261733Z 2618/2718 23007G15KT P6SM SCT040 SCT250
     FM270100 19004KT P6SM SKC
     FM270600 21003KT P6SM SKC WS010/22030KT=



000
FTUS42 KCAE 261733
TAFOGB
TAF
KOGB 261733Z 2618/2718 23010G15KT P6SM SCT045 SCT250
     FM270100 19005KT P6SM SKC
     FM270600 21003KT P6SM SKC WS010/22030KT=



000
FTUS42 KCAE 261733
TAFCUB
TAF
KCUB 261733Z 2618/2718 23009G15KT P6SM FEW045 SCT250
     FM270100 19003KT P6SM SKC
     FM270600 21003KT P6SM SKC WS010/22030KT=



000
FTUS42 KCAE 261733
TAFOGB
TAF
KOGB 261733Z 2618/2718 23010G15KT P6SM SCT045 SCT250
     FM270100 19005KT P6SM SKC
     FM270600 21003KT P6SM SKC WS010/22030KT=



000
FTUS42 KCAE 261733
TAFCAE
TAF
KCAE 261733Z 2618/2718 22010G15KT P6SM SCT045 SCT250
     FM270100 19005KT P6SM SKC
     FM270600 21003KT P6SM SKC WS010/22030KT=



000
FTUS42 KCAE 261733
TAFCUB
TAF
KCUB 261733Z 2618/2718 23009G15KT P6SM FEW045 SCT250
     FM270100 19003KT P6SM SKC
     FM270600 21003KT P6SM SKC WS010/22030KT=



000
FTUS42 KCAE 261733
TAFAGS
TAF
KAGS 261733Z 2618/2718 23007G15KT P6SM SCT040 SCT250
     FM270100 19004KT P6SM SKC
     FM270600 21003KT P6SM SKC WS010/22030KT=



    US Dept of Commerce
    National Oceanic and Atmospheric Administration
    National Weather Service
    1325 East West Highway
    Silver Spring, MD 20910
    Page Author: NWS Internet Services Team
Disclaimer
Information Quality
Credits
Glossary
Privacy Policy
Freedom of Information Act (FOIA)
About Us
Career Opportunities